createdAt,value
2023-04-14T00:01:27.155Z,100319.63
2023-04-14T00:03:55.238Z,100329.56
2023-04-14T00:06:24.635Z,100328.78
2023-04-14T00:08:52.749Z,100317.47
2023-04-14T00:11:20.675Z,100309.63
2023-04-14T00:13:48.575Z,100309.72
2023-04-14T00:16:16.714Z,100309.03
2023-04-14T00:18:44.649Z,100309.03
2023-04-14T00:21:13.371Z,100303.88
2023-04-14T00:23:42.761Z,100308.34
2023-04-14T00:26:10.689Z,100297.78
2023-04-14T00:28:38.676Z,100294.94
2023-04-14T00:31:07.134Z,100294.78
2023-04-14T00:33:35.049Z,100290.91
2023-04-14T00:36:02.960Z,100288.09
2023-04-14T00:38:31.525Z,100280.88
2023-04-14T00:41:00.822Z,100270.13
2023-04-14T00:43:28.760Z,100272.75
2023-04-14T00:45:56.703Z,100272.66
2023-04-14T00:48:24.657Z,100265.63
2023-04-14T00:50:52.699Z,100260.56
2023-04-14T00:53:21.185Z,100261.47
2023-04-14T00:55:49.099Z,100258.13
2023-04-14T00:58:18.325Z,100252.38
2023-04-14T01:00:46.325Z,100246.63
2023-04-14T01:03:14.350Z,100243.50
2023-04-14T01:05:42.438Z,100235.41
2023-04-14T01:08:10.620Z,100232.66
2023-04-14T01:10:42.210Z,100215.63
2023-04-14T01:13:21.320Z,100226.88
2023-04-14T01:15:51.885Z,100221.72
2023-04-14T01:18:23.177Z,100217.16
2023-04-14T01:20:51.727Z,100212.88
2023-04-14T01:23:23.775Z,100208.41
2023-04-14T01:26:29.763Z,100197.25
2023-04-14T01:29:08.781Z,100202.66
2023-04-14T01:31:39.496Z,100201.69
2023-04-14T01:34:10.803Z,100176.31
2023-04-14T01:36:41.493Z,100169.38
2023-04-14T01:39:10.034Z,100177.34
2023-04-14T01:41:38.814Z,100180.25
2023-04-14T01:44:06.881Z,100175.06
2023-04-14T01:46:35.318Z,100184.00
2023-04-14T01:49:04.707Z,100177.69
2023-04-14T01:51:32.853Z,100171.50
2023-04-14T01:54:00.765Z,100174.84
2023-04-14T01:56:28.656Z,100172.03
2023-04-14T01:58:56.640Z,100151.88
2023-04-14T02:01:24.911Z,100172.44
2023-04-14T02:03:53.264Z,100170.41
2023-04-14T02:06:22.751Z,100172.81
2023-04-14T02:08:51.020Z,100163.97
2023-04-14T02:11:18.991Z,100173.91
2023-04-14T02:13:46.877Z,100162.72
2023-04-14T02:16:15.247Z,100162.56
2023-04-14T02:18:43.190Z,100159.72
2023-04-14T02:21:11.075Z,100158.91
2023-04-14T02:23:40.334Z,100156.28
2023-04-14T02:26:11.102Z,100146.69
2023-04-14T02:28:43.068Z,100141.53
2023-04-14T02:31:11.432Z,100130.16
2023-04-14T02:33:39.534Z,100120.66
2023-04-14T02:36:10.573Z,100114.56
2023-04-14T02:38:41.821Z,100102.47
2023-04-14T02:41:14.862Z,100097.47
2023-04-14T02:43:45.365Z,100104.69
2023-04-14T02:46:13.384Z,100091.63
2023-04-14T02:48:42.986Z,100094.41
2023-04-14T02:51:11.441Z,100092.59
2023-04-14T02:53:40.685Z,100090.97
2023-04-14T02:56:08.727Z,100096.28
2023-04-14T02:58:36.979Z,100088.31
2023-04-14T03:01:05.042Z,100084.88
2023-04-14T03:03:35.419Z,100085.72
2023-04-14T03:06:03.704Z,100085.81
2023-04-14T03:08:31.572Z,100079.63
2023-04-14T03:11:00.923Z,100075.31
2023-04-14T03:13:28.859Z,100069.34
2023-04-14T03:15:56.775Z,100063.34
2023-04-14T03:18:24.648Z,100047.13
2023-04-14T03:20:55.920Z,100056.03
2023-04-14T03:23:24.510Z,100037.91
2023-04-14T03:25:52.356Z,100049.50
2023-04-14T03:28:23.574Z,100042.47
2023-04-14T03:30:52.686Z,100033.03
2023-04-14T03:33:23.405Z,100030.53
2023-04-14T03:35:51.638Z,100029.78
2023-04-14T03:38:19.522Z,100022.13
2023-04-14T03:40:48.481Z,100024.69
2023-04-14T03:43:19.996Z,100010.97
2023-04-14T03:45:50.178Z,100012.84
2023-04-14T03:48:19.555Z,100009.41
2023-04-14T03:50:49.893Z,99998.97
2023-04-14T03:53:18.105Z,99993.81
2023-04-14T03:55:46.659Z,99980.63
2023-04-14T03:58:14.849Z,99987.72
2023-04-14T04:00:42.985Z,99985.84
2023-04-14T04:03:12.340Z,99976.09
2023-04-14T04:05:40.999Z,99983.09
2023-04-14T04:08:09.564Z,99978.03
2023-04-14T04:10:37.501Z,99971.03
2023-04-14T04:13:08.242Z,99966.06
2023-04-14T04:15:36.226Z,99969.38
2023-04-14T04:18:04.107Z,99948.50
2023-04-14T04:20:33.398Z,99933.34
2023-04-14T04:23:01.694Z,99956.88
2023-04-14T04:25:29.576Z,99955.00
2023-04-14T04:27:57.485Z,99955.78
2023-04-14T04:30:25.389Z,99950.47
2023-04-14T04:32:53.273Z,99956.72
2023-04-14T04:35:21.362Z,99952.34
2023-04-14T04:37:50.777Z,99949.88
2023-04-14T04:40:18.781Z,99943.75
2023-04-14T04:42:46.666Z,99935.91
2023-04-14T04:45:14.542Z,99935.13
2023-04-14T04:47:42.549Z,99928.09
2023-04-14T04:50:10.687Z,99923.72
2023-04-14T04:52:38.559Z,99924.66
2023-04-14T04:55:08.849Z,99916.78
2023-04-14T04:57:36.778Z,99917.56
2023-04-14T05:00:05.424Z,99931.78
2023-04-14T05:02:33.432Z,99922.19
2023-04-14T05:05:01.422Z,99920.56
2023-04-14T05:07:29.288Z,99920.88
2023-04-14T05:09:57.244Z,99910.56
2023-04-14T05:12:26.568Z,99908.03
2023-04-14T05:14:54.432Z,99899.41
2023-04-14T05:17:22.316Z,99896.75
2023-04-14T05:19:50.531Z,99896.84
2023-04-14T05:22:18.546Z,99875.25
2023-04-14T05:24:50.531Z,99892.31
2023-04-14T05:27:18.564Z,99890.66
2023-04-14T05:29:47.846Z,99888.88
2023-04-14T05:32:15.757Z,99884.50
2023-04-14T05:34:43.637Z,99875.72
2023-04-14T05:37:11.557Z,99878.34
2023-04-14T05:39:39.435Z,99862.59
2023-04-14T05:42:07.387Z,99866.00
2023-04-14T05:44:35.598Z,99868.56
2023-04-14T05:47:04.922Z,99862.59
2023-04-14T05:49:32.904Z,99855.56
2023-04-14T05:52:01.239Z,99847.78
2023-04-14T05:54:29.154Z,99857.13
2023-04-14T05:56:57.669Z,99846.56
2023-04-14T05:59:25.671Z,99842.22
2023-04-14T06:01:53.640Z,99845.75
2023-04-14T06:04:23.156Z,99835.72
2023-04-14T06:06:51.566Z,99839.09
2023-04-14T06:09:19.500Z,99822.63
2023-04-14T06:11:47.401Z,99823.97
2023-04-14T06:14:15.457Z,99826.41
2023-04-14T06:16:43.387Z,99820.19
2023-04-14T06:19:11.327Z,99815.66
2023-04-14T06:21:40.666Z,99815.22
2023-04-14T06:24:09.273Z,99808.28
2023-04-14T06:26:37.599Z,99815.13
2023-04-14T06:29:07.547Z,99820.53
2023-04-14T06:31:35.923Z,99808.34
2023-04-14T06:34:04.343Z,99822.44
2023-04-14T06:36:32.909Z,99816.31
2023-04-14T06:39:02.605Z,99813.00
2023-04-14T06:41:31.308Z,99795.44
2023-04-14T06:43:59.207Z,99806.81
2023-04-14T06:46:27.199Z,99802.38
2023-04-14T06:48:55.139Z,99810.44
2023-04-14T06:51:23.228Z,99810.44
2023-04-14T06:53:51.518Z,99810.44
2023-04-14T06:56:20.775Z,99814.78
2023-04-14T06:58:48.715Z,99814.00
2023-04-14T07:01:16.697Z,99803.31
2023-04-14T07:03:47.152Z,99811.38
2023-04-14T07:06:17.255Z,99808.34
2023-04-14T07:08:46.695Z,99806.66
2023-04-14T07:11:14.739Z,99813.84
2023-04-14T07:13:44.079Z,99811.81
2023-04-14T07:16:12.028Z,99807.53
2023-04-14T07:18:39.916Z,99804.94
2023-04-14T07:21:08.487Z,99804.94
2023-04-14T07:23:36.366Z,99802.28
2023-04-14T07:26:04.335Z,99810.00
2023-04-14T07:28:32.542Z,99796.72
2023-04-14T07:31:08.465Z,99806.56
2023-04-14T07:33:36.605Z,99813.50
2023-04-14T07:36:06.234Z,99806.31
2023-04-14T07:38:34.173Z,99800.13
2023-04-14T07:41:04.796Z,99800.13
2023-04-14T07:43:35.212Z,99797.16
2023-04-14T07:46:05.769Z,99797.75
2023-04-14T07:48:33.967Z,99794.25
2023-04-14T07:51:01.872Z,99789.44
2023-04-14T07:53:29.804Z,99772.06
2023-04-14T07:55:58.665Z,99778.47
2023-04-14T07:58:29.075Z,99787.88
2023-04-14T08:00:57.877Z,99789.69
2023-04-14T08:03:27.372Z,99795.78
2023-04-14T08:05:55.508Z,99799.28
2023-04-14T08:08:23.646Z,99800.22
2023-04-14T08:10:51.526Z,99785.81
2023-04-14T08:13:20.007Z,99791.13
2023-04-14T08:15:48.498Z,99802.50
2023-04-14T08:18:16.365Z,99791.81
2023-04-14T08:20:45.689Z,99798.56
2023-04-14T08:23:13.608Z,99794.88
2023-04-14T08:25:42.296Z,99806.28
2023-04-14T08:28:10.286Z,99802.22
2023-04-14T08:30:38.345Z,99801.97
2023-04-14T08:33:06.296Z,99809.41
2023-04-14T08:35:37.235Z,99809.88
2023-04-14T08:38:10.817Z,99819.97
2023-04-14T08:40:39.748Z,99820.56
2023-04-14T08:43:07.771Z,99805.75
2023-04-14T08:45:36.120Z,99835.59
2023-04-14T08:48:04.987Z,99829.91
2023-04-14T08:50:34.158Z,99835.94
2023-04-14T08:53:02.962Z,99821.16
2023-04-14T08:55:32.893Z,99830.84
2023-04-14T08:58:02.113Z,99828.84
2023-04-14T09:00:31.202Z,99832.84
2023-04-14T09:02:59.316Z,99836.84
2023-04-14T09:05:27.458Z,99838.38
2023-04-14T09:07:55.446Z,99825.25
2023-04-14T09:10:24.021Z,99837.97
2023-04-14T09:12:53.587Z,99844.06
2023-04-14T09:15:21.913Z,99853.50
2023-04-14T09:17:50.150Z,99857.56
2023-04-14T09:20:38.501Z,99872.31
2023-04-14T09:23:09.429Z,99859.47
2023-04-14T09:25:38.933Z,99859.66
2023-04-14T09:28:08.249Z,99854.34
2023-04-14T09:30:36.383Z,99870.03
2023-04-14T09:33:06.312Z,99874.44
2023-04-14T09:35:44.554Z,99876.44
2023-04-14T09:38:12.480Z,99874.13
2023-04-14T09:40:40.368Z,99829.28
2023-04-14T09:43:12.922Z,99874.22
2023-04-14T09:45:44.982Z,99856.03
2023-04-14T09:48:16.391Z,99855.19
2023-04-14T09:51:03.515Z,99851.66
2023-04-14T09:53:32.124Z,99851.69
2023-04-14T09:56:02.652Z,99832.19
2023-04-14T09:58:32.793Z,99834.00
2023-04-14T10:01:04.790Z,99833.25
2023-04-14T10:03:34.749Z,99825.25
2023-04-14T10:06:04.926Z,99811.50
2023-04-14T10:08:37.749Z,99818.00
2023-04-14T10:11:15.820Z,99827.31
2023-04-14T10:13:45.366Z,99823.06
2023-04-14T10:16:13.543Z,99827.44
2023-04-14T10:18:41.505Z,99831.31
2023-04-14T10:21:09.687Z,99852.84
2023-04-14T10:23:38.414Z,99844.34
2023-04-14T10:26:07.225Z,99854.72
2023-04-14T10:28:36.052Z,99858.47
2023-04-14T10:31:06.783Z,99867.34
2023-04-14T10:33:34.746Z,99879.09
2023-04-14T10:36:02.676Z,99875.81
2023-04-14T10:38:42.321Z,99904.31
2023-04-14T10:41:10.681Z,99898.03
2023-04-14T10:43:38.736Z,99895.13
2023-04-14T10:46:09.670Z,99894.78
2023-04-14T10:48:38.742Z,99907.63
2023-04-14T10:51:07.544Z,99924.88
2023-04-14T10:53:37.824Z,99934.94
2023-04-14T10:56:06.235Z,99960.13
2023-04-14T10:58:37.815Z,99963.44
2023-04-14T11:01:26.777Z,99976.66
2023-04-14T11:03:56.317Z,99979.72
2023-04-14T11:06:53.605Z,99979.16
2023-04-14T11:09:25.667Z,99979.22
2023-04-14T11:11:56.701Z,99968.03
2023-04-14T11:14:32.885Z,99970.22
2023-04-14T11:17:04.589Z,99980.69
2023-04-14T11:19:33.309Z,99996.41
2023-04-14T11:22:01.359Z,100003.63
2023-04-14T11:24:29.443Z,100014.81
2023-04-14T11:26:57.596Z,100007.59
2023-04-14T11:29:25.526Z,100015.78
2023-04-14T11:32:07.329Z,100030.03
2023-04-14T11:34:35.510Z,100032.38
2023-04-14T11:37:04.035Z,100046.88
2023-04-14T11:39:32.229Z,100045.91
2023-04-14T11:42:01.288Z,100052.91
2023-04-14T11:44:29.484Z,100051.84
2023-04-14T11:46:57.575Z,100053.19
2023-04-14T11:49:36.688Z,100055.88
2023-04-14T11:52:08.722Z,100066.22
2023-04-14T11:54:38.035Z,100079.72
2023-04-14T11:57:11.107Z,100081.31
2023-04-14T11:59:43.585Z,100090.91
2023-04-14T12:02:16.557Z,100105.88
2023-04-14T12:04:46.881Z,100108.91
2023-04-14T12:07:17.059Z,100118.84
2023-04-14T12:09:47.457Z,100121.47
2023-04-14T12:12:17.218Z,100110.25
2023-04-14T12:14:45.706Z,100127.28
2023-04-14T12:17:15.508Z,100124.66
2023-04-14T12:19:43.904Z,100123.50
2023-04-14T12:22:13.182Z,100119.44
2023-04-14T12:24:42.005Z,100126.06
2023-04-14T12:27:10.133Z,100135.59
2023-04-14T12:29:38.172Z,100125.69
2023-04-14T12:32:11.635Z,100141.97
2023-04-14T12:34:39.672Z,100148.16
2023-04-14T12:37:09.772Z,100151.75
2023-04-14T12:39:52.677Z,100153.19
2023-04-14T12:42:20.944Z,100172.19
2023-04-14T12:44:55.974Z,100171.91
2023-04-14T12:47:30.401Z,100178.69
2023-04-14T12:49:58.579Z,100187.44
2023-04-14T12:52:39.856Z,100189.19
2023-04-14T12:55:19.723Z,100187.59
2023-04-14T12:57:47.641Z,100192.38
2023-04-14T13:00:16.145Z,100196.56
2023-04-14T13:02:45.515Z,100212.03
2023-04-14T13:05:15.149Z,100206.34
2023-04-14T13:07:43.624Z,100225.16
2023-04-14T13:10:13.269Z,100230.31
2023-04-14T13:12:42.011Z,100229.97
2023-04-14T13:16:09.236Z,100239.38
2023-04-14T13:17:59.640Z,100251.34
2023-04-14T13:20:30.581Z,100241.19
2023-04-14T13:22:58.467Z,100261.69
2023-04-14T13:25:27.866Z,100251.50
2023-04-14T13:27:55.782Z,100262.28
2023-04-14T13:30:23.757Z,100275.81
2023-04-14T13:32:51.949Z,100286.94
2023-04-14T13:35:19.954Z,100291.78
2023-04-14T13:37:48.018Z,100286.91
2023-04-14T13:40:16.098Z,100293.88
2023-04-14T13:42:45.705Z,100307.41
2023-04-14T13:45:13.831Z,100298.47
2023-04-14T13:47:41.758Z,100311.03
2023-04-14T13:50:10.719Z,100317.34
2023-04-14T13:52:38.642Z,100322.66
2023-04-14T13:55:07.192Z,100321.38
2023-04-14T13:57:35.181Z,100332.88
2023-04-14T14:00:07.234Z,100339.91
2023-04-14T14:02:36.128Z,100343.72
2023-04-14T14:05:04.225Z,100333.41
2023-04-14T14:07:32.091Z,100368.97
2023-04-14T14:10:00.156Z,100378.38
2023-04-14T14:12:28.032Z,100372.53
2023-04-14T14:14:55.927Z,100379.88
2023-04-14T14:17:25.471Z,100375.81
2023-04-14T14:19:53.806Z,100393.56
2023-04-14T14:22:21.707Z,100392.97
2023-04-14T14:24:49.606Z,100405.31
2023-04-14T14:27:17.484Z,100409.06
2023-04-14T14:29:45.392Z,100417.44
2023-04-14T14:32:13.442Z,100424.28
2023-04-14T14:34:43.911Z,100427.78
2023-04-14T14:37:12.075Z,100437.97
2023-04-14T14:39:40.048Z,100431.50
2023-04-14T14:42:08.150Z,100433.78
2023-04-14T14:44:38.550Z,100432.53
2023-04-14T14:47:06.669Z,100430.25
2023-04-14T14:49:34.656Z,100443.69
2023-04-14T14:52:04.816Z,100425.78
2023-04-14T14:54:32.634Z,100444.78
2023-04-14T14:57:01.471Z,100440.94
2023-04-14T14:59:29.761Z,100459.84
2023-04-14T15:01:57.837Z,100465.34
2023-04-14T15:04:25.931Z,100468.19
2023-04-14T15:06:53.936Z,100467.31
2023-04-14T15:09:23.218Z,100474.72
2023-04-14T15:11:51.406Z,100464.88
2023-04-14T15:14:19.320Z,100472.91
2023-04-14T15:16:48.100Z,100472.63
2023-04-14T15:19:16.582Z,100490.31
2023-04-14T15:21:44.600Z,100487.16
2023-04-14T15:24:12.528Z,100497.63
2023-04-14T15:26:41.776Z,100505.25
2023-04-14T15:29:09.679Z,100508.13
2023-04-14T15:31:37.807Z,100509.06
2023-04-14T15:34:06.925Z,100515.47
2023-04-14T15:36:34.811Z,100507.84
2023-04-14T15:39:02.720Z,100518.25
2023-04-14T15:41:30.653Z,100528.94
2023-04-14T15:44:00.238Z,100531.22
2023-04-14T15:46:28.395Z,100531.63
2023-04-14T15:48:56.377Z,100529.63
2023-04-14T15:51:24.296Z,100523.03
2023-04-14T15:53:52.829Z,100521.59
2023-04-14T15:56:23.436Z,100536.41
2023-04-14T15:58:51.672Z,100547.41
2023-04-14T16:01:21.090Z,100555.53
2023-04-14T16:03:51.194Z,100547.28
2023-04-14T16:06:20.060Z,100548.94
2023-04-14T16:08:47.958Z,100554.69
2023-04-14T16:11:16.511Z,100556.50
2023-04-14T16:13:45.739Z,100567.66
2023-04-14T16:16:14.415Z,100573.72
2023-04-14T16:18:43.864Z,100581.56
2023-04-14T16:21:11.823Z,100574.72
2023-04-14T16:23:39.789Z,100597.69
2023-04-14T16:26:07.691Z,100600.28
2023-04-14T16:28:35.875Z,100604.09
2023-04-14T16:31:03.927Z,100613.13
2023-04-14T16:33:32.704Z,100610.97
2023-04-14T16:36:04.956Z,100615.25
2023-04-14T16:38:32.950Z,100604.22
2023-04-14T16:41:02.184Z,100608.47
2023-04-14T16:43:30.226Z,100627.56
2023-04-14T16:46:01.993Z,100616.47
2023-04-14T16:48:30.705Z,100621.28
2023-04-14T16:50:58.804Z,100614.91
2023-04-14T16:53:29.753Z,100642.84
2023-04-14T16:56:03.589Z,100643.91
2023-04-14T16:58:31.604Z,100650.06
2023-04-14T17:00:59.488Z,100651.81
2023-04-14T17:03:27.727Z,100660.94
2023-04-14T17:05:56.370Z,100658.66
2023-04-14T17:08:24.379Z,100652.81
2023-04-14T17:10:53.835Z,100660.59
2023-04-14T17:13:22.407Z,100664.44
2023-04-14T17:15:58.786Z,100671.56
2023-04-14T17:18:33.918Z,100682.34
2023-04-14T17:21:02.943Z,100672.50
2023-04-14T17:23:30.877Z,100694.56
2023-04-14T17:26:00.345Z,100685.03
2023-04-14T17:28:28.824Z,100692.59
2023-04-14T17:30:59.333Z,100690.75
2023-04-14T17:33:27.642Z,100696.97
2023-04-14T17:35:55.743Z,100704.66
2023-04-14T17:38:24.279Z,100718.75
2023-04-14T17:40:53.325Z,100724.09
2023-04-14T17:43:23.104Z,100732.72
2023-04-14T17:45:51.549Z,100738.31
2023-04-14T17:48:19.722Z,100738.25
2023-04-14T17:50:47.681Z,100743.66
2023-04-14T17:53:16.388Z,100748.72
2023-04-14T17:55:44.886Z,100757.78
2023-04-14T17:58:12.800Z,100764.16
2023-04-14T18:00:42.116Z,100772.94
2023-04-14T18:03:10.091Z,100772.84
2023-04-14T18:05:38.224Z,100770.69
2023-04-14T18:08:06.776Z,100779.56
2023-04-14T18:10:35.858Z,100777.56
2023-04-14T18:13:03.716Z,100777.94
2023-04-14T18:15:32.338Z,100779.75
2023-04-14T18:18:01.813Z,100783.78
2023-04-14T18:20:30.150Z,100796.94
2023-04-14T18:23:02.177Z,100794.75
2023-04-14T18:26:26.283Z,100806.00
2023-04-14T18:28:18.385Z,100796.94
2023-04-14T18:30:53.059Z,100811.47
2023-04-14T18:33:22.542Z,100820.69
2023-04-14T18:35:51.881Z,100830.66
2023-04-14T18:38:19.964Z,100830.19
2023-04-14T18:40:48.465Z,100833.41
2023-04-14T18:43:16.414Z,100835.53
2023-04-14T18:45:46.305Z,100852.78
2023-04-14T18:48:14.340Z,100855.78
2023-04-14T18:50:43.589Z,100857.97
2023-04-14T18:53:11.765Z,100866.28
2023-04-14T18:55:45.181Z,100869.34
2023-04-14T18:58:14.107Z,100873.25
2023-04-14T19:00:43.144Z,100890.28
2023-04-14T19:03:11.480Z,100871.66
2023-04-14T19:05:39.465Z,100893.69
2023-04-14T19:08:09.064Z,100901.88
2023-04-14T19:10:37.390Z,100904.94
2023-04-14T19:13:05.807Z,100908.69
2023-04-14T19:15:34.193Z,100906.38
2023-04-14T19:18:03.691Z,100918.03
2023-04-14T19:20:31.884Z,100926.44
2023-04-14T19:22:59.800Z,100929.28
2023-04-14T19:25:29.440Z,100932.97
2023-04-14T19:28:01.186Z,100933.28
2023-04-14T19:30:29.305Z,100937.00
2023-04-14T19:32:57.761Z,100945.22
2023-04-14T19:35:25.745Z,100945.28
2023-04-14T19:37:55.836Z,100945.53
2023-04-14T19:40:24.223Z,100955.41
2023-04-14T19:42:55.244Z,100960.91
2023-04-14T19:45:23.216Z,100970.84
2023-04-14T19:47:51.658Z,100974.44
2023-04-14T19:50:19.603Z,100971.94
2023-04-14T19:52:49.829Z,100975.44
2023-04-14T19:55:18.042Z,100988.81
2023-04-14T19:57:47.046Z,100997.88
2023-04-14T20:00:17.020Z,101002.31
2023-04-14T20:02:45.123Z,100999.06
2023-04-14T20:05:14.024Z,101018.44
2023-04-14T20:07:41.908Z,101018.63
2023-04-14T20:10:10.798Z,101025.75
2023-04-14T20:12:38.972Z,101017.19
2023-04-14T20:15:08.286Z,101028.59
2023-04-14T20:17:37.702Z,101025.97
2023-04-14T20:20:06.601Z,101028.63
2023-04-14T20:22:34.618Z,101034.97
2023-04-14T20:25:02.574Z,101037.66
2023-04-14T20:27:31.714Z,101051.06
2023-04-14T20:29:59.726Z,101052.84
2023-04-14T20:32:27.651Z,101057.38
2023-04-14T20:34:57.097Z,101065.44
2023-04-14T20:37:25.113Z,101066.31
2023-04-14T20:39:53.349Z,101066.50
2023-04-14T20:42:21.296Z,101069.13
2023-04-14T20:44:49.248Z,101082.47
2023-04-14T20:47:17.417Z,101081.66
2023-04-14T20:49:45.366Z,101080.78
2023-04-14T20:52:14.749Z,101070.41
2023-04-14T20:54:42.599Z,101080.94
2023-04-14T20:57:10.762Z,101085.47
2023-04-14T20:59:38.970Z,101094.28
2023-04-14T21:02:07.032Z,101096.94
2023-04-14T21:04:36.347Z,101091.69
2023-04-14T21:07:04.718Z,101094.41
2023-04-14T21:09:34.001Z,101110.38
2023-04-14T21:12:15.587Z,101107.78
2023-04-14T21:15:30.763Z,101115.88
2023-04-14T21:17:32.363Z,101110.72
2023-04-14T21:20:00.319Z,101115.97
2023-04-14T21:22:28.219Z,101125.00
2023-04-14T21:24:57.561Z,101128.59
2023-04-14T21:27:25.463Z,101126.06
2023-04-14T21:29:53.457Z,101126.94
2023-04-14T21:32:21.883Z,101130.44
2023-04-14T21:34:49.768Z,101140.22
2023-04-14T21:37:18.754Z,101144.91
2023-04-14T21:39:46.631Z,101146.63
2023-04-14T21:42:15.886Z,101156.41
2023-04-14T21:44:43.868Z,101152.91
2023-04-14T21:47:11.804Z,101160.00
2023-04-14T21:49:39.805Z,101161.84
2023-04-14T21:52:08.709Z,101171.53
2023-04-14T21:54:38.823Z,101171.53
2023-04-14T21:57:06.920Z,101180.41
2023-04-14T21:59:36.599Z,101181.31
2023-04-14T22:02:05.229Z,101190.22
2023-04-14T22:04:36.857Z,101195.66
2023-04-14T22:07:05.417Z,101204.56
2023-04-14T22:09:34.406Z,101213.44
2023-04-14T22:12:02.285Z,101212.56
2023-04-14T22:14:31.121Z,101207.41
2023-04-14T22:17:01.034Z,101211.75
2023-04-14T22:19:29.987Z,101217.09
2023-04-14T22:21:57.899Z,101214.50
2023-04-14T22:24:25.748Z,101216.28
2023-04-14T22:26:53.898Z,101224.31
2023-04-14T22:29:21.788Z,101230.53
2023-04-14T22:31:49.676Z,101224.41
2023-04-14T22:34:18.978Z,101226.19
2023-04-14T22:36:47.105Z,101227.22
2023-04-14T22:39:14.967Z,101231.66
2023-04-14T22:41:43.211Z,101231.66
2023-04-14T22:44:11.105Z,101231.72
2023-04-14T22:46:39.100Z,101237.94
2023-04-14T22:49:07.335Z,101238.84
2023-04-14T22:51:36.707Z,101242.44
2023-04-14T22:54:04.683Z,101233.00
2023-04-14T22:56:32.575Z,101245.19
2023-04-14T22:59:00.691Z,101240.06
2023-04-14T23:01:29.692Z,101242.59
2023-04-14T23:03:57.664Z,101247.03
2023-04-14T23:06:25.826Z,101251.50
2023-04-14T23:08:55.072Z,101263.00
2023-04-14T23:11:22.977Z,101262.13
2023-04-14T23:13:50.977Z,101267.44
2023-04-14T23:16:20.003Z,101261.28
2023-04-14T23:18:49.622Z,101262.19
2023-04-14T23:21:17.842Z,101268.38
2023-04-14T23:23:46.066Z,101276.34
2023-04-14T23:26:15.548Z,101277.25
2023-04-14T23:28:43.468Z,101283.44
2023-04-14T23:31:11.752Z,101290.50
2023-04-14T23:33:39.678Z,101292.28
2023-04-14T23:36:08.299Z,101294.97
2023-04-14T23:38:36.542Z,101303.91
2023-04-14T23:41:04.924Z,101302.22
2023-04-14T23:43:34.563Z,101302.38
2023-04-14T23:46:02.492Z,101310.28
2023-04-14T23:48:30.409Z,101313.94
2023-04-14T23:51:01.544Z,101310.50
2023-04-14T23:53:44.901Z,101314.13
2023-04-14T23:56:12.772Z,101301.94
2023-04-14T23:58:42.458Z,101317.81
